createdAt,value
2019-01-13T00:00:11.930Z,32.73
2019-01-13T00:02:40.132Z,30.40
2019-01-13T00:05:09.145Z,29.33
2019-01-13T00:07:37.432Z,30.10
2019-01-13T00:10:07.120Z,29.77
2019-01-13T00:12:35.616Z,31.13
2019-01-13T00:15:08.146Z,31.53
2019-01-13T00:17:36.361Z,31.27
2019-01-13T00:20:07.824Z,32.67
2019-01-13T00:22:36.037Z,31.63
2019-01-13T00:25:05.008Z,29.60
2019-01-13T00:27:33.225Z,29.07
2019-01-13T00:30:01.435Z,28.83
2019-01-13T00:32:29.646Z,28.40
2019-01-13T00:34:57.845Z,28.53
2019-01-13T00:37:26.064Z,28.60
2019-01-13T00:39:54.269Z,29.20
2019-01-13T00:42:22.473Z,29.13
2019-01-13T00:44:50.685Z,30.70
2019-01-13T00:47:18.893Z,32.27
2019-01-13T00:49:47.108Z,29.33
2019-01-13T00:52:15.308Z,31.33
2019-01-13T00:54:43.514Z,30.70
2019-01-13T00:57:11.733Z,31.00
2019-01-13T00:59:39.940Z,28.87
2019-01-13T01:02:08.144Z,28.77
2019-01-13T01:04:36.360Z,29.50
2019-01-13T01:07:06.045Z,29.73
2019-01-13T01:09:34.335Z,31.00
2019-01-13T01:12:02.549Z,32.03
2019-01-13T01:14:30.748Z,32.90
2019-01-13T01:16:58.969Z,33.70
2019-01-13T01:19:27.172Z,33.50
2019-01-13T01:21:55.382Z,34.90
2019-01-13T01:24:23.592Z,33.73
2019-01-13T01:26:51.804Z,34.43
2019-01-13T01:29:20.024Z,33.30
2019-01-13T01:31:48.242Z,32.87
2019-01-13T01:34:16.444Z,34.20
2019-01-13T01:36:44.658Z,35.63
2019-01-13T01:39:12.858Z,35.87
2019-01-13T01:41:41.089Z,34.73
2019-01-13T01:44:09.360Z,35.43
2019-01-13T01:46:37.565Z,36.83
2019-01-13T01:49:05.781Z,35.23
2019-01-13T01:51:33.984Z,35.60
2019-01-13T01:54:02.199Z,36.10
2019-01-13T01:56:30.417Z,34.20
2019-01-13T01:58:58.651Z,34.33
2019-01-13T02:01:26.859Z,34.63
2019-01-13T02:03:55.072Z,31.67
2019-01-13T02:06:23.379Z,30.20
2019-01-13T02:08:51.577Z,29.33
2019-01-13T02:11:19.793Z,27.57
2019-01-13T02:13:47.997Z,28.03
2019-01-13T02:16:16.220Z,27.70
2019-01-13T02:18:44.425Z,28.10
2019-01-13T02:21:12.649Z,27.37
2019-01-13T02:23:40.852Z,26.97
2019-01-13T02:26:09.066Z,25.90
2019-01-13T02:28:37.281Z,25.47
2019-01-13T02:31:05.488Z,25.53
2019-01-13T02:33:33.715Z,25.20
2019-01-13T02:36:01.896Z,23.97
2019-01-13T02:38:30.118Z,24.50
2019-01-13T02:40:58.334Z,23.37
2019-01-13T02:43:26.537Z,24.70
2019-01-13T02:45:54.754Z,25.87
2019-01-13T02:48:22.978Z,25.27
2019-01-13T02:50:51.178Z,22.90
2019-01-13T02:53:19.385Z,23.70
2019-01-13T02:55:47.613Z,22.37
2019-01-13T02:58:15.822Z,24.13
2019-01-13T03:00:44.037Z,21.03
2019-01-13T03:03:12.255Z,20.73
2019-01-13T03:05:40.464Z,21.97
2019-01-13T03:08:08.679Z,21.70
2019-01-13T03:10:36.901Z,21.50
2019-01-13T03:13:05.112Z,23.03
2019-01-13T03:15:33.330Z,23.33
2019-01-13T03:18:01.544Z,24.53
2019-01-13T03:20:29.746Z,23.87
2019-01-13T03:22:57.965Z,24.07
2019-01-13T03:25:26.200Z,26.43
2019-01-13T03:27:54.391Z,25.60
2019-01-13T03:30:23.870Z,25.37
2019-01-13T03:32:52.087Z,26.00
2019-01-13T03:35:20.296Z,25.77
2019-01-13T03:37:48.520Z,23.97
2019-01-13T03:40:20.028Z,24.93
2019-01-13T03:42:48.303Z,26.40
2019-01-13T03:45:16.531Z,24.40
2019-01-13T03:47:44.724Z,24.10
2019-01-13T03:50:18.446Z,28.17
2019-01-13T03:52:52.771Z,27.17
2019-01-13T03:55:18.854Z,28.97
2019-01-13T03:57:47.065Z,29.13
2019-01-13T04:00:21.017Z,30.90
2019-01-13T04:02:49.236Z,31.33
2019-01-13T04:05:17.521Z,30.67
2019-01-13T04:07:45.729Z,29.17
2019-01-13T04:10:16.826Z,29.93
2019-01-13T04:12:45.073Z,30.83
2019-01-13T04:15:31.665Z,28.03
2019-01-13T04:17:59.890Z,29.77
2019-01-13T04:20:28.114Z,29.77
2019-01-13T04:22:56.321Z,27.97
2019-01-13T04:25:24.520Z,28.67
2019-01-13T04:27:52.737Z,29.13
2019-01-13T04:30:20.946Z,28.37
2019-01-13T04:32:49.189Z,28.03
2019-01-13T04:35:17.396Z,26.57
2019-01-13T04:37:45.600Z,27.33
2019-01-13T04:40:13.840Z,25.47
2019-01-13T04:42:42.020Z,25.97
2019-01-13T04:45:10.312Z,25.37
2019-01-13T04:47:38.522Z,24.53
2019-01-13T04:50:12.525Z,21.23
2019-01-13T04:52:40.742Z,22.63
2019-01-13T04:55:09.129Z,23.80
2019-01-13T04:57:37.341Z,23.53
2019-01-13T05:00:09.061Z,21.97
2019-01-13T05:02:37.280Z,23.40
2019-01-13T05:05:07.745Z,22.47
2019-01-13T05:07:35.951Z,21.67
2019-01-13T05:10:07.405Z,20.87
2019-01-13T05:12:55.061Z,21.37
2019-01-13T05:15:23.270Z,20.53
2019-01-13T05:17:51.501Z,23.10
2019-01-13T05:20:20.777Z,18.93
2019-01-13T05:22:48.988Z,20.53
2019-01-13T05:25:17.192Z,23.00
2019-01-13T05:27:45.422Z,22.73
2019-01-13T05:30:19.257Z,23.40
2019-01-13T05:32:47.461Z,22.03
2019-01-13T05:35:15.680Z,21.00
2019-01-13T05:37:43.902Z,22.03
2019-01-13T05:40:15.517Z,21.80
2019-01-13T05:42:43.729Z,21.43
2019-01-13T05:45:15.170Z,20.03
2019-01-13T05:47:43.389Z,19.63
2019-01-13T05:50:14.528Z,18.67
2019-01-13T05:52:43.719Z,20.87
2019-01-13T05:55:13.378Z,20.10
2019-01-13T05:57:41.596Z,19.50
2019-01-13T06:00:13.069Z,20.27
2019-01-13T06:02:41.278Z,19.03
2019-01-13T06:05:09.493Z,19.23
2019-01-13T06:07:37.696Z,18.27
2019-01-13T06:10:09.194Z,17.97
2019-01-13T06:12:37.404Z,16.73
2019-01-13T06:15:09.142Z,16.40
2019-01-13T06:17:37.357Z,16.77
2019-01-13T06:20:14.482Z,16.70
2019-01-13T06:22:42.695Z,16.43
2019-01-13T06:25:10.913Z,16.77
2019-01-13T06:27:39.132Z,14.27
2019-01-13T06:30:10.609Z,17.07
2019-01-13T06:32:38.818Z,15.20
2019-01-13T06:35:07.703Z,16.93
2019-01-13T06:37:35.918Z,16.97
2019-01-13T06:40:07.531Z,17.20
2019-01-13T06:42:35.765Z,17.23
2019-01-13T06:45:06.877Z,16.87
2019-01-13T06:47:35.090Z,16.43
2019-01-13T06:50:05.901Z,16.90
2019-01-13T06:52:34.137Z,15.80
2019-01-13T06:55:02.341Z,17.83
2019-01-13T06:57:30.545Z,19.57
2019-01-13T06:59:58.761Z,19.67
2019-01-13T07:02:26.969Z,19.53
2019-01-13T07:04:55.196Z,19.00
2019-01-13T07:07:23.408Z,19.20
2019-01-13T07:09:51.621Z,18.27
2019-01-13T07:12:19.824Z,19.00
2019-01-13T07:14:48.036Z,19.50
2019-01-13T07:17:16.246Z,18.07
2019-01-13T07:19:44.452Z,18.43
2019-01-13T07:22:12.669Z,17.60
2019-01-13T07:24:40.868Z,18.07
2019-01-13T07:27:09.092Z,18.43
2019-01-13T07:29:37.310Z,18.70
2019-01-13T07:32:24.952Z,18.63
2019-01-13T07:34:53.161Z,18.30
2019-01-13T07:37:21.445Z,18.47
2019-01-13T07:39:49.671Z,19.37
2019-01-13T07:42:17.876Z,20.37
2019-01-13T07:44:46.081Z,20.27
2019-01-13T07:47:14.349Z,19.27
2019-01-13T07:49:42.554Z,20.37
2019-01-13T07:52:10.757Z,20.60
2019-01-13T07:54:38.973Z,21.47
2019-01-13T07:57:07.193Z,21.37
2019-01-13T07:59:35.441Z,22.70
2019-01-13T08:02:03.651Z,23.50
2019-01-13T08:04:31.877Z,26.13
2019-01-13T08:07:00.117Z,26.47
2019-01-13T08:09:28.347Z,27.57
2019-01-13T08:11:56.574Z,28.47
2019-01-13T08:14:24.776Z,32.20
2019-01-13T08:16:52.994Z,31.37
2019-01-13T08:19:21.212Z,32.33
2019-01-13T08:21:49.422Z,33.20
2019-01-13T08:24:17.649Z,32.77
2019-01-13T08:26:45.857Z,33.63
2019-01-13T08:29:14.081Z,36.33
2019-01-13T08:31:42.305Z,34.20
2019-01-13T08:34:10.513Z,33.57
2019-01-13T08:36:38.976Z,32.90
2019-01-13T08:39:07.778Z,35.00
2019-01-13T08:41:35.993Z,35.97
2019-01-13T08:44:04.213Z,33.87
2019-01-13T08:46:32.439Z,34.83
2019-01-13T08:49:00.645Z,37.17
2019-01-13T08:51:28.854Z,36.57
2019-01-13T08:53:57.078Z,35.73
2019-01-13T08:56:25.289Z,37.53
2019-01-13T08:58:53.518Z,38.37
2019-01-13T09:01:21.767Z,38.13
2019-01-13T09:03:50.551Z,37.47
2019-01-13T09:06:18.888Z,38.73
2019-01-13T09:08:47.096Z,37.07
2019-01-13T09:11:15.327Z,39.03
2019-01-13T09:13:43.562Z,36.73
2019-01-13T09:16:11.765Z,36.23
2019-01-13T09:18:39.986Z,36.70
2019-01-13T09:21:08.213Z,36.27
2019-01-13T09:23:36.435Z,36.20
2019-01-13T09:26:04.681Z,33.97
2019-01-13T09:28:32.918Z,34.77
2019-01-13T09:31:01.145Z,32.60
2019-01-13T09:33:29.412Z,31.47
2019-01-13T09:35:57.637Z,31.73
2019-01-13T09:38:25.870Z,32.23
2019-01-13T09:40:54.079Z,29.40
2019-01-13T09:43:22.311Z,30.13
2019-01-13T09:45:50.525Z,27.77
2019-01-13T09:48:18.779Z,28.97
2019-01-13T09:50:46.983Z,28.97
2019-01-13T09:53:15.214Z,26.20
2019-01-13T09:55:43.431Z,28.20
2019-01-13T09:58:11.662Z,26.37
2019-01-13T10:00:39.916Z,27.17
2019-01-13T10:03:08.124Z,25.37
2019-01-13T10:05:36.413Z,25.33
2019-01-13T10:08:04.636Z,24.63
2019-01-13T10:10:32.849Z,23.83
2019-01-13T10:13:01.069Z,24.40
2019-01-13T10:15:29.300Z,23.17
2019-01-13T10:17:57.533Z,23.63
2019-01-13T10:20:25.754Z,23.87
2019-01-13T10:22:53.983Z,23.70
2019-01-13T10:25:22.193Z,22.30
2019-01-13T10:27:50.409Z,23.47
2019-01-13T10:30:21.417Z,22.83
2019-01-13T10:32:54.509Z,21.67
2019-01-13T10:35:19.583Z,21.40
2019-01-13T10:37:47.793Z,23.00
2019-01-13T10:40:19.160Z,23.30
2019-01-13T10:42:47.361Z,23.70
2019-01-13T10:45:17.023Z,23.90
2019-01-13T10:47:45.327Z,23.20
2019-01-13T10:50:19.452Z,26.03
2019-01-13T10:52:47.674Z,25.57
2019-01-13T10:55:17.639Z,26.47
2019-01-13T10:57:45.852Z,25.87
2019-01-13T11:00:17.327Z,27.77
2019-01-13T11:02:45.552Z,27.67
2019-01-13T11:05:13.785Z,27.50
2019-01-13T11:07:41.994Z,28.70
2019-01-13T11:10:16.123Z,30.30
2019-01-13T11:12:44.368Z,27.93
2019-01-13T11:15:21.727Z,29.67
2019-01-13T11:17:47.596Z,28.70
2019-01-13T11:20:27.415Z,29.40
2019-01-13T11:22:55.637Z,33.37
2019-01-13T11:25:23.870Z,29.57
2019-01-13T11:27:52.090Z,29.90
2019-01-13T11:30:23.734Z,31.03
2019-01-13T11:32:51.989Z,30.67
2019-01-13T11:35:20.206Z,30.90
2019-01-13T11:37:49.203Z,25.70
2019-01-13T11:40:25.634Z,29.33
2019-01-13T11:42:53.861Z,29.20
2019-01-13T11:45:22.070Z,27.70
2019-01-13T11:47:50.294Z,25.93
2019-01-13T11:50:20.864Z,26.07
2019-01-13T11:52:49.158Z,23.07
2019-01-13T11:55:17.756Z,22.80
2019-01-13T11:57:45.960Z,25.13
2019-01-13T12:00:17.681Z,21.63
2019-01-13T12:02:45.962Z,20.93
2019-01-13T12:05:15.718Z,19.10
2019-01-13T12:07:44.316Z,18.87
2019-01-13T12:10:20.352Z,19.37
2019-01-13T12:12:48.757Z,17.90
2019-01-13T12:15:18.586Z,17.93
2019-01-13T12:17:46.793Z,17.80
2019-01-13T12:20:17.554Z,16.90
2019-01-13T12:22:45.781Z,17.00
2019-01-13T12:25:17.121Z,16.77
2019-01-13T12:27:45.367Z,15.37
2019-01-13T12:30:28.995Z,15.63
2019-01-13T12:32:57.196Z,14.30
2019-01-13T12:35:25.417Z,13.67
2019-01-13T12:37:53.631Z,15.63
2019-01-13T12:40:24.811Z,15.57
2019-01-13T12:42:53.012Z,13.37
2019-01-13T12:45:23.473Z,15.23
2019-01-13T12:47:51.832Z,14.37
2019-01-13T12:50:23.316Z,13.43
2019-01-13T12:52:51.557Z,15.27
2019-01-13T12:55:19.769Z,14.03
2019-01-13T12:57:47.988Z,15.60
2019-01-13T13:00:18.037Z,15.67
2019-01-13T13:02:46.264Z,13.10
2019-01-13T13:05:16.608Z,13.43
2019-01-13T13:07:46.696Z,12.93
2019-01-13T13:10:18.180Z,13.80
2019-01-13T13:12:46.392Z,13.53
2019-01-13T13:15:14.604Z,14.00
2019-01-13T13:17:42.853Z,12.83
2019-01-13T13:20:14.553Z,13.10
2019-01-13T13:22:42.806Z,13.00
2019-01-13T13:25:13.719Z,13.17
2019-01-13T13:27:42.048Z,13.23
2019-01-13T13:30:16.645Z,12.80
2019-01-13T13:32:44.913Z,13.73
2019-01-13T13:35:13.122Z,12.60
2019-01-13T13:37:41.416Z,12.77
2019-01-13T13:40:12.900Z,11.13
2019-01-13T13:42:41.622Z,11.53
2019-01-13T13:45:09.983Z,12.90
2019-01-13T13:47:38.204Z,12.87
2019-01-13T13:50:09.683Z,14.30
2019-01-13T13:52:37.892Z,14.10
2019-01-13T13:55:08.593Z,15.47
2019-01-13T13:57:36.887Z,16.00
2019-01-13T14:00:11.405Z,16.47
2019-01-13T14:02:39.621Z,14.67
2019-01-13T14:05:08.541Z,14.83
2019-01-13T14:07:37.380Z,16.23
2019-01-13T14:10:17.849Z,14.67
2019-01-13T14:12:46.057Z,17.37
2019-01-13T14:15:14.278Z,16.27
2019-01-13T14:17:42.503Z,17.77
2019-01-13T14:20:13.718Z,18.13
2019-01-13T14:22:41.930Z,18.40
2019-01-13T14:25:10.156Z,17.90
2019-01-13T14:27:38.438Z,19.67
2019-01-13T14:30:15.484Z,18.67
2019-01-13T14:32:43.845Z,19.47
2019-01-13T14:35:12.189Z,19.17
2019-01-13T14:37:40.440Z,18.67
2019-01-13T14:40:11.893Z,21.13
2019-01-13T14:42:40.147Z,20.40
2019-01-13T14:45:11.661Z,20.90
2019-01-13T14:47:39.875Z,20.57
2019-01-13T14:50:19.734Z,18.77
2019-01-13T14:52:48.021Z,20.00
2019-01-13T14:55:16.286Z,21.27
2019-01-13T14:57:44.535Z,23.93
2019-01-13T15:00:15.953Z,22.30
2019-01-13T15:02:44.189Z,20.30
2019-01-13T15:05:13.800Z,21.23
2019-01-13T15:07:41.992Z,23.73
2019-01-13T15:10:18.801Z,20.40
2019-01-13T15:12:47.088Z,20.87
2019-01-13T15:15:16.565Z,20.80
2019-01-13T15:17:44.809Z,18.70
2019-01-13T15:20:17.668Z,18.33
2019-01-13T15:22:45.905Z,19.97
2019-01-13T15:25:16.873Z,18.87
2019-01-13T15:27:45.077Z,19.60
2019-01-13T15:30:16.561Z,19.20
2019-01-13T15:32:44.779Z,18.17
2019-01-13T15:35:13.709Z,18.73
2019-01-13T15:37:42.113Z,19.70
2019-01-13T15:40:13.197Z,17.40
2019-01-13T15:42:41.424Z,17.37
2019-01-13T15:45:11.523Z,15.87
2019-01-13T15:47:39.745Z,15.23
2019-01-13T15:50:14.260Z,17.00
2019-01-13T15:52:42.502Z,14.27
2019-01-13T15:55:10.785Z,16.80
2019-01-13T15:57:39.024Z,15.53
2019-01-13T16:00:25.198Z,14.90
2019-01-13T16:02:53.423Z,14.03
2019-01-13T16:05:21.630Z,15.47
2019-01-13T16:07:49.853Z,15.67
2019-01-13T16:10:20.706Z,17.23
2019-01-13T16:12:48.922Z,15.57
2019-01-13T16:15:18.834Z,13.40
2019-01-13T16:17:47.049Z,15.53
2019-01-13T16:20:30.332Z,15.50
2019-01-13T16:22:58.550Z,14.07
2019-01-13T16:25:26.766Z,14.57
2019-01-13T16:27:54.964Z,13.83
2019-01-13T16:30:26.477Z,13.37
2019-01-13T16:32:54.692Z,12.00
2019-01-13T16:35:22.900Z,12.80
2019-01-13T16:37:51.117Z,12.27
2019-01-13T16:40:25.084Z,11.97
2019-01-13T16:42:53.491Z,11.50
2019-01-13T16:45:21.715Z,12.17
2019-01-13T16:47:49.923Z,12.40
2019-01-13T16:50:23.105Z,12.07
2019-01-13T16:52:53.554Z,11.93
2019-01-13T16:55:23.596Z,10.37
2019-01-13T16:57:51.811Z,10.80
2019-01-13T17:00:23.163Z,10.57
2019-01-13T17:02:51.372Z,10.80
2019-01-13T17:05:21.730Z,10.23
2019-01-13T17:07:49.932Z,9.23
2019-01-13T17:10:20.977Z,9.40
2019-01-13T17:12:49.214Z,9.73
2019-01-13T17:15:20.966Z,9.17
2019-01-13T17:17:49.192Z,8.70
2019-01-13T17:20:19.993Z,8.20
2019-01-13T17:22:48.204Z,8.47
2019-01-13T17:25:19.703Z,8.97
2019-01-13T17:27:47.908Z,9.03
2019-01-13T17:30:19.409Z,8.97
2019-01-13T17:32:47.650Z,8.47
2019-01-13T17:35:15.873Z,8.30
2019-01-13T17:37:44.087Z,8.27
2019-01-13T17:40:17.999Z,9.93
2019-01-13T17:42:46.214Z,10.03
2019-01-13T17:45:17.687Z,9.10
2019-01-13T17:47:46.836Z,8.10
2019-01-13T17:50:17.877Z,8.50
2019-01-13T17:52:46.105Z,7.80
2019-01-13T17:55:17.576Z,7.37
2019-01-13T17:57:45.784Z,7.80
2019-01-13T18:00:17.530Z,6.67
2019-01-13T18:02:45.800Z,5.87
2019-01-13T18:05:14.009Z,5.97
2019-01-13T18:07:42.584Z,7.23
2019-01-13T18:10:12.327Z,7.50
2019-01-13T18:12:40.528Z,6.53
2019-01-13T18:15:11.305Z,6.33
2019-01-13T18:17:39.513Z,7.57
2019-01-13T18:20:19.527Z,6.20
2019-01-13T18:22:47.732Z,6.30
2019-01-13T18:25:15.944Z,6.50
2019-01-13T18:27:44.193Z,5.70
2019-01-13T18:30:26.641Z,5.80
2019-01-13T18:32:54.865Z,5.60
2019-01-13T18:35:23.708Z,5.27
2019-01-13T18:37:51.927Z,5.42
2019-01-13T18:40:24.830Z,4.90
2019-01-13T18:42:53.057Z,4.30
2019-01-13T18:45:21.264Z,4.43
2019-01-13T18:47:49.473Z,4.50
2019-01-13T18:50:20.749Z,4.00
2019-01-13T18:52:52.210Z,4.37
2019-01-13T18:55:20.438Z,2.97
2019-01-13T18:57:48.651Z,1.83
2019-01-13T19:00:24.701Z,2.27
2019-01-13T19:02:52.906Z,2.40
2019-01-13T19:05:26.509Z,1.43
2019-01-13T19:07:54.734Z,1.90
2019-01-13T19:10:41.367Z,2.23
2019-01-13T19:13:38.769Z,2.07
2019-01-13T19:16:09.914Z,2.73
2019-01-13T19:18:38.137Z,3.30
2019-01-13T19:21:06.487Z,3.17
2019-01-13T19:23:35.593Z,4.10
2019-01-13T19:26:03.814Z,4.10
2019-01-13T19:28:32.020Z,3.90
2019-01-13T19:31:00.303Z,5.97
2019-01-13T19:33:28.505Z,5.73
2019-01-13T19:35:56.712Z,5.00
2019-01-13T19:38:24.929Z,5.20
2019-01-13T19:40:53.286Z,4.93
2019-01-13T19:43:21.484Z,4.60
2019-01-13T19:45:49.877Z,5.77
2019-01-13T19:48:18.142Z,4.43
2019-01-13T19:50:46.359Z,1.90
2019-01-13T19:53:14.584Z,2.23
2019-01-13T19:55:55.528Z,3.07
2019-01-13T19:58:23.737Z,2.10
2019-01-13T20:00:51.934Z,2.20
2019-01-13T20:03:20.157Z,1.83
2019-01-13T20:05:48.357Z,2.43
2019-01-13T20:08:16.582Z,2.27
2019-01-13T20:10:44.781Z,2.80
2019-01-13T20:13:12.983Z,1.93
2019-01-13T20:15:41.207Z,2.70
2019-01-13T20:18:09.408Z,1.57
2019-01-13T20:20:37.604Z,1.80
2019-01-13T20:23:05.830Z,1.80
2019-01-13T20:25:34.037Z,1.90
2019-01-13T20:28:02.302Z,2.07
2019-01-13T20:30:32.966Z,2.40
2019-01-13T20:33:02.189Z,1.80
2019-01-13T20:35:30.434Z,1.87
2019-01-13T20:37:59.817Z,2.57
2019-01-13T20:40:28.102Z,2.20
2019-01-13T20:42:56.428Z,2.40
2019-01-13T20:45:27.876Z,2.77
2019-01-13T20:47:56.101Z,2.70
2019-01-13T20:50:24.337Z,2.77
2019-01-13T20:52:52.549Z,3.13
2019-01-13T20:55:20.763Z,2.90
2019-01-13T20:57:48.977Z,2.87
2019-01-13T21:00:25.952Z,3.20
2019-01-13T21:02:54.228Z,3.53
2019-01-13T21:05:26.543Z,3.40
2019-01-13T21:07:52.360Z,3.03
2019-01-13T21:10:21.648Z,2.57
2019-01-13T21:12:49.918Z,3.30
2019-01-13T21:15:29.990Z,3.10
2019-01-13T21:17:58.205Z,3.73
2019-01-13T21:20:26.426Z,3.80
2019-01-13T21:22:54.622Z,3.63
2019-01-13T21:25:22.829Z,3.43
2019-01-13T21:27:51.328Z,4.00
2019-01-13T21:30:33.566Z,4.23
2019-01-13T21:33:01.780Z,4.53
2019-01-13T21:35:34.085Z,4.93
2019-01-13T21:38:00.015Z,5.97
2019-01-13T21:40:28.227Z,5.10
2019-01-13T21:42:56.446Z,5.80
2019-01-13T21:45:25.516Z,5.73
2019-01-13T21:47:53.721Z,6.17
2019-01-13T21:50:24.364Z,6.37
2019-01-13T21:52:52.573Z,6.67
2019-01-13T21:55:21.033Z,6.00
2019-01-13T21:57:49.233Z,5.10
2019-01-13T22:00:21.418Z,5.43
2019-01-13T22:02:49.624Z,4.90
2019-01-13T22:05:17.838Z,5.27
2019-01-13T22:07:46.101Z,4.60
2019-01-13T22:10:19.660Z,4.50
2019-01-13T22:12:47.879Z,5.13
2019-01-13T22:15:18.724Z,4.83
2019-01-13T22:17:46.941Z,4.87
2019-01-13T22:20:18.173Z,4.90
2019-01-13T22:22:46.382Z,4.40
2019-01-13T22:25:14.584Z,5.20
2019-01-13T22:27:42.801Z,4.43
2019-01-13T22:30:21.933Z,5.33
2019-01-13T22:32:50.224Z,4.27
2019-01-13T22:35:18.428Z,3.93
2019-01-13T22:37:46.637Z,4.50
2019-01-13T22:40:16.985Z,4.40
2019-01-13T22:42:45.188Z,4.27
2019-01-13T22:45:16.688Z,4.97
2019-01-13T22:47:44.895Z,5.33
2019-01-13T22:50:15.561Z,4.50
2019-01-13T22:52:43.776Z,5.10
2019-01-13T22:55:11.982Z,4.00
2019-01-13T22:57:40.437Z,5.77
2019-01-13T23:00:38.805Z,4.63
2019-01-13T23:03:07.010Z,4.57
2019-01-13T23:05:35.219Z,4.43
2019-01-13T23:08:03.433Z,4.40
2019-01-13T23:10:31.657Z,4.20
2019-01-13T23:12:59.872Z,4.50
2019-01-13T23:15:28.097Z,4.23
2019-01-13T23:17:56.296Z,4.53
2019-01-13T23:20:24.502Z,4.00
2019-01-13T23:22:52.715Z,4.07
2019-01-13T23:25:20.928Z,4.40
2019-01-13T23:27:49.140Z,4.47
2019-01-13T23:30:17.360Z,5.17
2019-01-13T23:32:45.560Z,5.60
2019-01-13T23:35:13.763Z,4.73
2019-01-13T23:37:41.973Z,4.10
2019-01-13T23:40:10.181Z,4.53
2019-01-13T23:42:38.384Z,4.97
2019-01-13T23:45:26.024Z,4.87
2019-01-13T23:47:54.247Z,5.03
2019-01-13T23:50:22.457Z,4.70
2019-01-13T23:52:50.658Z,4.93
2019-01-13T23:55:18.865Z,4.73
2019-01-13T23:57:47.077Z,4.70
